Aeroporto :
LOGIN :

Iscrizione | Disclaimer

   EN    FR    IT 

 










Sommario :    VFR   VFR Marginale   IFR   IFR Intensivo   IFR Molto Intensivo
Visibilità : 
Base nubi : 
>= 8 km
>= 3000ft
5 / 8 km
1000 / 3000 ft
1500m / 5 km
500 / 1000 ft
800 / 1500m
200 / 500 ft
< 800m
< 200 ft
Simboli :   Temporali  Nebbia  Neve Forte  Precipitazioni Forti  Vento > 20 kt
SIGMETs :   Varie  Temporali  Ghiacco  Turbolenza  Onda orograficha  Ceneri Vulcaniche






- Altitudine del aeroporto : 1416 ft
- Codice IATA : ZRH


LSZH - Zurich

ULTIMO METAR :
  • 091850Z 20008KT 6000 -RADZ SCT007 BKN025 06/04 Q1004 RERA TEMPO 4000 RA BKN010

METARs OBSOLETI :
  • 091820Z 18012KT 7000 RA SCT007 BKN050 05/05 Q1004 TEMPO 4000 NSW BKN010
  • 091750Z 18008KT 6000 -RA FEW006 SCT009 BKN015 05/04 Q1006 TEMPO 4000 BKN010
  • 091720Z 17008KT 8000 -RA FEW004 SCT009 BKN017 05/05 Q1006 RERA TEMPO 4000 BKN008
  • 091650Z 16009KT 5000 RA FEW004 SCT008 BKN045 05/05 Q1006 RERA TEMPO 4000 BKN008
  • 091620Z 17007KT 5000 -RA FEW005 SCT028 BKN045 05/05 Q1007 RERA TEMPO 4500
  • 091550Z 18007KT 7000 RA FEW018 SCT035 BKN050 05/04 Q1007 BECMG NSW
  • 091520Z 17007KT 6000 RA FEW014 SCT018 BKN045 05/04 Q1008 BECMG NSW
  • 091450Z 14007KT 9999 -RA FEW014 SCT018 BKN045 06/04 Q1009 TEMPO RA
  • 091420Z 22006KT 180V260 9999 -RA SCT016 BKN022 BKN035 06/04 Q1010 RERA TEMPO RA

TAF TAF LSZH
Valido dal 09 a 18 ore il 11 a 00 ore UTC


091725Z 0918/1024 18008KT 7000 -RA FEW005 SCT009 BKN020 TX10/1014Z TN05/1006Z
BECMG 0918/0920 23013KT
TEMPO 0918/1002 4000 RA BKN008
TEMPO 0920/1012 24015G27KT
TEMPO 0921/0924 27022G36KT SCT020TCU
BECMG 1002/1005 24008KT
PROB30
TEMPO 1002/1005 SHRA
PROB40 1015/1019 CAVOK
TEMPO 1020/1024 RA
ATIS : +41 43 816 2295 (DEP) +41 43 816 2294 (ARR)



MetMap, La meteo Aeronautica in un colpo d'occhio ! - Copyright ORBIFLY Dicembre 2007 - Disclaimer

ORBIFLY MET'MAP TEAM :

Programmazione e sviluppo : Alexandra Zaïnal
Concezione : Baudouin d'Aumeries
Supporto tecnico e logistico : Manuel Goepfert
Aiuto : Marc-Olivier Méhu
Aiuto per la traduzione : Arnaldo La Scala




FONTI E CREDITI :

   NOAA